Time;durP1;ratioP1;P1;durP2;ratioP2;P2;SDS_P1;SDS_P2;PMS_P1;PMS_P2;Temp;Humidity;BMP_temperature;BMP_pressure;BME280_temperature;BME280_humidity;BME280_pressure;Samples;Min_cycle;Max_cycle;Signal;HPM_P1;HPM_P2
2023/12/22 00:00:15;;;;;;;1.95;1.20;;;;;;;10.39;85.71;92988.31;5099770;28;20059;-81
2023/12/22 00:02:40;;;;;;;4.13;1.15;;;;;;;10.28;87.23;93004.25;5098541;28;20126;-82
2023/12/22 00:05:06;;;;;;;1.88;0.55;;;;;;;10.29;86.28;93000.56;5098446;28;20458;-82
2023/12/22 00:07:31;;;;;;;4.22;0.93;;;;;;;10.30;84.14;93009.97;5097939;28;20027;-81
2023/12/22 00:09:57;;;;;;;5.00;0.80;;;;;;;10.04;86.47;93013.22;5099596;28;20051;-82
2023/12/22 00:12:23;;;;;;;3.55;1.00;;;;;;;9.81;89.66;93004.53;5098593;28;20039;-81
2023/12/22 00:14:48;;;;;;;7.95;1.23;;;;;;;10.31;83.02;93016.00;5098264;28;20093;-81
2023/12/22 00:17:14;;;;;;;4.95;0.95;;;;;;;10.12;84.45;93000.47;5097839;28;20102;-82
2023/12/22 00:19:40;;;;;;;6.45;0.95;;;;;;;10.19;81.75;92998.22;5098378;28;20031;-82
2023/12/22 00:22:05;;;;;;;1.40;0.60;;;;;;;9.91;84.19;92982.63;5096929;28;20028;-82
2023/12/22 00:24:31;;;;;;;4.45;0.73;;;;;;;9.56;87.86;92977.09;5077902;28;20162;-82
2023/12/22 00:26:56;;;;;;;4.40;0.80;;;;;;;9.48;86.12;92971.50;5077406;28;20028;-82
2023/12/22 00:29:22;;;;;;;4.40;1.10;;;;;;;9.39;83.80;92960.19;5078961;28;20364;-82
2023/12/22 00:31:47;;;;;;;3.90;0.70;;;;;;;9.28;86.59;92966.69;5078925;28;20047;-82
2023/12/22 00:34:13;;;;;;;4.43;0.90;;;;;;;10.44;75.71;92970.66;5077627;28;20036;-81
2023/12/22 00:36:38;;;;;;;3.60;0.63;;;;;;;10.18;76.15;92965.25;5077591;28;20028;-82
2023/12/22 00:39:04;;;;;;;3.75;0.73;;;;;;;10.18;74.70;92973.88;5077192;28;20150;-82
2023/12/22 00:41:29;;;;;;;1.77;0.80;;;;;;;10.30;74.09;92962.84;5061105;28;20027;-82
2023/12/22 00:43:54;;;;;;;2.45;0.70;;;;;;;10.26;74.71;92943.59;5077441;28;20068;-81
2023/12/22 00:46:20;;;;;;;1.70;0.75;;;;;;;10.52;73.45;92953.47;5077334;28;20025;-82
2023/12/22 00:48:46;;;;;;;2.83;0.98;;;;;;;10.33;72.95;92949.19;5077594;28;20433;-81
2023/12/22 00:51:11;;;;;;;2.03;0.70;;;;;;;10.57;71.24;92955.94;5060619;28;20062;-81
2023/12/22 00:53:37;;;;;;;3.47;0.80;;;;;;;10.19;75.07;92956.34;5077369;28;20032;-82
2023/12/22 00:56:02;;;;;;;6.05;0.90;;;;;;;10.50;72.76;92946.97;5077248;28;20119;-81
2023/12/22 00:58:29;;;;;;;5.20;0.90;;;;;;;10.66;71.20;92965.69;5076508;28;20422;-81
2023/12/22 01:00:55;;;;;;;6.65;1.00;;;;;;;10.32;72.62;92959.94;5077333;28;20029;-82
2023/12/22 01:03:20;;;;;;;7.10;1.15;;;;;;;10.11;72.43;92975.38;5077079;28;20436;-82
2023/12/22 01:05:46;;;;;;;4.13;0.95;;;;;;;9.97;72.66;92988.50;5077141;28;20031;-82
2023/12/22 01:08:11;;;;;;;5.35;0.88;;;;;;;10.36;70.04;92975.84;5076491;28;20025;-82
2023/12/22 01:10:37;;;;;;;4.88;0.65;;;;;;;10.15;70.45;92971.06;5077013;28;20035;-82
2023/12/22 01:13:02;;;;;;;2.38;0.65;;;;;;;10.16;70.09;92970.78;5078035;28;20028;-82
2023/12/22 01:15:28;;;;;;;3.63;0.60;;;;;;;10.00;70.38;92975.59;5077962;28;20035;-82
2023/12/22 01:17:53;;;;;;;2.10;0.70;;;;;;;9.87;71.79;92982.44;5076383;28;20075;-82
2023/12/22 01:20:19;;;;;;;2.60;0.60;;;;;;;9.82;69.71;92992.25;5076747;28;20123;-82
2023/12/22 01:22:44;;;;;;;2.67;0.77;;;;;;;9.62;71.44;93007.31;5084361;28;20026;-82
2023/12/22 01:25:09;;;;;;;1.35;0.40;;;;;;;9.76;66.80;93023.75;5098101;28;20031;-82
2023/12/22 01:27:35;;;;;;;1.98;0.60;;;;;;;9.90;67.98;93023.69;5096407;28;20028;-82
2023/12/22 01:30:00;;;;;;;1.65;0.50;;;;;;;9.71;68.12;93041.38;5080032;28;20028;-82
2023/12/22 01:32:26;;;;;;;2.13;0.40;;;;;;;10.07;65.33;93037.22;5077593;28;20028;-82
2023/12/22 01:34:51;;;;;;;2.85;0.95;;;;;;;9.65;69.45;93017.19;5076393;28;20030;-82
2023/12/22 01:37:16;;;;;;;3.40;0.80;;;;;;;9.51;72.38;93019.81;5077145;28;20028;-82
2023/12/22 01:39:42;;;;;;;3.15;0.60;;;;;;;9.50;69.57;93015.66;5077111;28;20350;-82
2023/12/22 01:42:07;;;;;;;0.80;0.50;;;;;;;9.34;70.14;93017.81;5097844;28;20024;-82
2023/12/22 01:44:33;;;;;;;3.47;0.60;;;;;;;9.30;69.85;93015.00;5097749;28;20028;-82
2023/12/22 01:46:58;;;;;;;1.45;0.50;;;;;;;9.69;66.13;93022.59;5097204;28;20036;-82
2023/12/22 01:49:25;;;;;;;2.42;0.60;;;;;;;9.95;62.59;93020.19;5093430;28;20143;-82
2023/12/22 01:51:51;;;;;;;3.67;0.50;;;;;;;9.78;66.00;93012.22;5083809;28;20039;-82
2023/12/22 01:54:17;;;;;;;3.83;0.85;;;;;;;9.33;72.77;93017.03;5096446;28;20028;-82
2023/12/22 01:56:42;;;;;;;2.10;0.77;;;;;;;9.23;75.67;93022.44;5093779;28;20399;-82
2023/12/22 01:59:08;;;;;;;3.78;0.70;;;;;;;9.76;64.94;93013.28;5094610;28;20035;-82
2023/12/22 02:01:34;;;;;;;1.95;0.30;;;;;;;10.96;59.05;92995.53;5091371;28;20081;-82
2023/12/22 02:04:00;;;;;;;7.18;0.77;;;;;;;11.32;56.83;92986.72;5085054;28;20454;-82
2023/12/22 02:06:25;;;;;;;1.60;0.52;;;;;;;11.46;53.60;93004.16;5084975;28;20119;-82
2023/12/22 02:08:51;;;;;;;2.60;0.47;;;;;;;11.17;55.44;92995.75;5087395;28;20024;-82
2023/12/22 02:11:16;;;;;;;4.80;0.85;;;;;;;11.38;52.60;93000.44;5068026;28;20426;-82
2023/12/22 02:13:45;;;;;;;2.90;0.40;;;;;;;11.82;50.11;92974.25;5085805;28;20027;-82
2023/12/22 02:16:23;;;;;;;1.35;0.43;;;;;;;11.39;51.45;92981.03;5075890;28;20094;-82
2023/12/22 02:18:51;;;;;;;1.10;0.40;;;;;;;12.10;48.77;92996.84;5095542;28;20032;-82
2023/12/22 02:21:16;;;;;;;0.90;0.40;;;;;;;12.06;47.91;92973.03;5078942;28;20119;-83
2023/12/22 02:23:41;;;;;;;2.45;0.40;;;;;;;11.77;48.36;92992.03;5086963;28;20494;-82
2023/12/22 02:26:15;;;;;;;1.33;0.60;;;;;;;11.89;48.03;92989.53;5097029;28;20070;-82
2023/12/22 02:28:41;;;;;;;1.33;0.60;;;;;;;11.95;47.43;92977.81;5077590;28;20025;-82
2023/12/22 02:31:15;;;;;;;1.10;0.40;;;;;;;11.67;47.93;92979.97;5077857;28;20166;-82
2023/12/22 02:33:41;;;;;;;1.85;0.60;;;;;;;11.78;47.42;92983.06;5096666;28;20043;-82
2023/12/22 02:36:07;;;;;;;3.15;0.70;;;;;;;11.98;46.81;93021.06;5095648;28;20028;-82
2023/12/22 02:38:33;;;;;;;1.23;0.50;;;;;;;12.34;46.11;92995.56;5095097;28;20338;-82
2023/12/22 02:40:59;;;;;;;1.20;0.60;;;;;;;12.23;46.07;92992.50;5095656;28;20433;-82
2023/12/22 02:43:24;;;;;;;0.70;0.40;;;;;;;12.09;46.48;93009.19;5087140;28;20039;-82
2023/12/22 02:45:51;;;;;;;1.52;0.40;;;;;;;12.19;46.21;92997.59;5095479;28;20036;-82
2023/12/22 02:48:16;;;;;;;3.30;0.50;;;;;;;12.00;46.55;93011.78;5095107;28;20034;-81
2023/12/22 02:50:41;;;;;;;3.28;0.50;;;;;;;12.13;45.93;92988.34;5095774;28;20035;-81
2023/12/22 02:53:07;;;;;;;1.75;0.63;;;;;;;11.90;46.18;92977.19;5095440;28;20444;-82
2023/12/22 02:55:33;;;;;;;1.58;0.52;;;;;;;11.88;45.87;92982.75;5072308;28;20048;-82
2023/12/22 02:57:58;;;;;;;1.90;0.77;;;;;;;12.07;45.06;92982.47;5094981;28;20028;-81
2023/12/22 03:00:24;;;;;;;0.93;0.43;;;;;;;12.24;42.43;92968.56;5096594;28;20055;-81
2023/12/22 03:02:49;;;;;;;0.70;0.40;;;;;;;12.78;41.60;92992.84;5096640;28;20032;-81
2023/12/22 03:05:15;;;;;;;4.85;0.40;;;;;;;12.38;41.95;92999.88;5085291;28;20033;-80
2023/12/22 03:07:40;;;;;;;3.50;0.60;;;;;;;12.52;41.86;92975.28;5074785;28;20032;-81
2023/12/22 03:10:06;;;;;;;2.00;0.35;;;;;;;12.89;40.56;92985.38;5075852;28;20040;-81
2023/12/22 03:12:31;;;;;;;3.88;0.60;;;;;;;12.58;40.84;92998.44;5080616;28;20056;-82
2023/12/22 03:14:57;;;;;;;2.28;0.30;;;;;;;12.21;41.95;92976.28;5087218;28;20033;-82
2023/12/22 03:17:22;;;;;;;0.82;0.40;;;;;;;12.22;41.14;92981.22;5078709;28;20033;-82
2023/12/22 03:19:48;;;;;;;3.17;0.52;;;;;;;12.22;41.09;92988.31;5062288;28;20078;-82
2023/12/22 03:22:13;;;;;;;1.00;0.35;;;;;;;12.19;42.17;92973.94;5079070;28;20434;-82
2023/12/22 03:24:38;;;;;;;0.88;0.43;;;;;;;12.18;40.78;92964.53;5079401;28;20021;-82
2023/12/22 03:27:04;;;;;;;1.20;0.47;;;;;;;12.32;40.12;92967.00;5095448;28;20031;-82
2023/12/22 03:29:30;;;;;;;8.60;0.60;;;;;;;12.40;40.65;92945.19;5096445;28;20020;-82
2023/12/22 03:31:55;;;;;;;1.25;0.40;;;;;;;12.50;39.71;92957.22;5070424;28;20031;-81
2023/12/22 03:34:20;;;;;;;0.45;0.30;;;;;;;12.37;39.69;92982.56;5070311;28;20020;-82
2023/12/22 03:36:48;;;;;;;1.85;0.50;;;;;;;12.35;39.45;92984.00;5084795;28;20020;-82
2023/12/22 03:39:15;;;;;;;0.82;0.30;;;;;;;12.58;39.25;92960.91;5090151;28;20036;-83
2023/12/22 03:41:40;;;;;;;1.63;0.50;;;;;;;12.70;39.30;92976.78;5078749;28;20475;-82
2023/12/22 03:44:05;;;;;;;0.73;0.40;;;;;;;12.27;39.55;92991.56;5078628;28;20024;-85
2023/12/22 03:46:31;;;;;;;1.70;0.50;;;;;;;12.55;39.13;92993.81;5092119;28;20367;-83
2023/12/22 03:48:56;;;;;;;3.88;0.60;;;;;;;12.65;38.63;92984.84;5098358;28;20016;-83
2023/12/22 03:51:22;;;;;;;2.00;0.60;;;;;;;12.23;39.76;92981.97;5100056;28;20028;-83
2023/12/22 03:53:47;;;;;;;5.45;0.50;;;;;;;11.93;39.78;92971.31;5098750;28;20024;-83
2023/12/22 03:56:12;;;;;;;2.60;0.40;;;;;;;12.41;38.83;92974.84;5091590;28;20066;-81
2023/12/22 03:58:38;;;;;;;3.58;0.80;;;;;;;12.27;39.37;92967.16;5098133;28;20097;-82
2023/12/22 04:01:04;;;;;;;2.95;0.55;;;;;;;12.36;38.58;92969.78;5098648;28;20383;-82
2023/12/22 04:03:30;;;;;;;3.80;0.60;;;;;;;12.41;38.40;92948.59;5081942;28;20058;-83
2023/12/22 04:05:55;;;;;;;3.28;0.47;;;;;;;12.33;38.54;92937.03;5080717;28;20019;-82
2023/12/22 04:08:20;;;;;;;1.10;0.50;;;;;;;12.51;38.12;92929.09;5074077;28;20031;-83
2023/12/22 04:10:46;;;;;;;4.05;0.50;;;;;;;12.04;39.27;92953.44;5098397;28;20079;-83
2023/12/22 04:13:12;;;;;;;2.83;0.70;;;;;;;11.97;38.65;92943.38;5098569;28;20031;-83
2023/12/22 04:15:37;;;;;;;2.38;0.50;;;;;;;11.94;39.08;92936.91;5098299;28;20035;-82
2023/12/22 04:18:03;;;;;;;4.07;0.80;;;;;;;12.23;38.46;92961.75;5091996;28;20043;-82
2023/12/22 04:20:28;;;;;;;0.35;0.30;;;;;;;11.96;38.89;92942.63;5077916;28;20532;-82
2023/12/22 04:22:54;;;;;;;3.92;0.43;;;;;;;11.95;38.71;92951.56;5077188;28;20452;-82
2023/12/22 04:25:21;;;;;;;1.10;0.57;;;;;;;11.89;38.39;92952.78;5078125;28;20027;-82
2023/12/22 04:27:47;;;;;;;2.13;0.50;;;;;;;11.87;38.56;92968.09;5075272;28;20023;-82
2023/12/22 04:30:13;;;;;;;1.13;0.32;;;;;;;11.82;38.05;92973.50;5097815;28;20058;-82
2023/12/22 04:32:38;;;;;;;1.63;0.43;;;;;;;11.94;37.78;92968.41;5097849;28;20039;-83
2023/12/22 04:35:04;;;;;;;3.08;0.43;;;;;;;11.73;39.14;92961.13;5081221;28;20035;-83
2023/12/22 04:37:30;;;;;;;4.03;0.60;;;;;;;11.76;38.42;92969.47;5097168;28;20039;-82
2023/12/22 04:39:55;;;;;;;0.60;0.25;;;;;;;11.78;39.02;92977.81;5097750;28;20038;-83
2023/12/22 04:42:20;;;;;;;6.05;0.57;;;;;;;12.27;37.20;92988.94;5097883;28;20085;-83
2023/12/22 04:44:46;;;;;;;3.50;0.80;;;;;;;12.21;37.55;92998.06;5097731;28;20085;-83
2023/12/22 04:47:12;;;;;;;2.28;0.38;;;;;;;11.91;38.11;93003.16;5098216;28;20035;-82
2023/12/22 04:49:38;;;;;;;1.65;0.35;;;;;;;11.51;39.00;93011.13;5090800;28;20509;-82
2023/12/22 04:52:03;;;;;;;1.25;0.40;;;;;;;11.75;38.75;93015.94;5080522;28;20036;-82
2023/12/22 04:54:29;;;;;;;2.15;0.50;;;;;;;11.88;37.83;93014.25;5097628;28;20068;-82
2023/12/22 04:56:54;;;;;;;3.13;0.43;;;;;;;11.82;38.02;93002.38;5098235;28;20349;-82
2023/12/22 04:59:19;;;;;;;1.67;0.60;;;;;;;12.29;36.89;93007.78;5089745;28;20067;-83
2023/12/22 05:01:45;;;;;;;1.05;0.57;;;;;;;12.02;37.48;93008.88;5085169;28;20422;-83
2023/12/22 05:04:11;;;;;;;2.10;0.60;;;;;;;11.93;37.75;93021.19;5071976;28;20038;-82
2023/12/22 05:06:37;;;;;;;2.53;0.60;;;;;;;12.07;37.10;93027.09;5094742;28;20090;-82
2023/12/22 05:09:03;;;;;;;1.05;0.60;;;;;;;11.90;37.37;93032.31;5092214;28;20028;-83
2023/12/22 05:11:28;;;;;;;3.45;0.63;;;;;;;11.71;37.93;93034.13;5089397;28;20032;-82
2023/12/22 05:13:54;;;;;;;3.85;0.57;;;;;;;11.62;38.20;93036.00;5084369;28;20085;-83
2023/12/22 05:16:19;;;;;;;1.58;0.50;;;;;;;11.63;37.48;93053.28;5077083;28;20033;-83
2023/12/22 05:18:45;;;;;;;5.63;0.70;;;;;;;11.25;38.36;93041.44;5087580;28;20041;-82
2023/12/22 05:21:13;;;;;;;1.98;0.70;;;;;;;11.34;38.50;93048.56;5093172;28;20091;-83
2023/12/22 05:23:38;;;;;;;3.00;0.52;;;;;;;11.43;37.81;93052.00;5068958;28;20032;-83
2023/12/22 05:26:04;;;;;;;1.02;0.40;;;;;;;11.29;37.66;93044.22;5076573;28;20039;-82
2023/12/22 05:28:29;;;;;;;2.53;0.52;;;;;;;11.44;37.40;93062.16;5076550;28;20017;-82
2023/12/22 05:30:55;;;;;;;0.38;0.35;;;;;;;11.43;37.80;93065.88;5076548;28;20173;-83
2023/12/22 05:33:20;;;;;;;7.65;0.52;;;;;;;11.65;37.00;93050.34;5092697;28;20035;-82
2023/12/22 05:35:46;;;;;;;6.30;0.90;;;;;;;11.54;37.77;93055.84;5096722;28;20058;-82
2023/12/22 05:38:11;;;;;;;4.38;0.32;;;;;;;11.63;36.78;93052.50;5097382;28;20466;-82
2023/12/22 05:40:36;;;;;;;2.45;0.65;;;;;;;11.36;37.47;93055.06;5096337;28;20030;-83
2023/12/22 05:43:02;;;;;;;5.63;0.70;;;;;;;11.39;37.30;93064.16;5097851;28;20352;-83
2023/12/22 05:45:28;;;;;;;2.17;0.70;;;;;;;11.24;37.62;93065.34;5092627;28;20052;-83
2023/12/22 05:47:54;;;;;;;3.05;0.80;;;;;;;11.39;37.29;93066.75;5059291;28;20095;-83
2023/12/22 05:50:19;;;;;;;2.22;0.50;;;;;;;11.17;37.41;93079.66;5063666;28;20038;-82
2023/12/22 05:52:45;;;;;;;5.63;0.68;;;;;;;11.43;37.27;93065.09;5087209;28;20062;-82
2023/12/22 05:55:10;;;;;;;7.47;0.50;;;;;;;11.54;36.52;93092.56;5095909;28;20050;-82
2023/12/22 05:57:36;;;;;;;1.73;0.52;;;;;;;11.67;36.60;93077.03;5095747;28;20031;-82
2023/12/22 06:00:06;;;;;;;1.55;0.60;;;;;;;11.70;36.09;93100.81;5097390;28;20032;-82
2023/12/22 06:02:32;;;;;;;4.32;0.50;;;;;;;11.57;36.62;93065.75;5094877;28;20399;-84
2023/12/22 06:04:57;;;;;;;2.55;0.50;;;;;;;11.59;36.40;93087.22;5096098;28;20032;-82
2023/12/22 06:07:23;;;;;;;2.45;0.73;;;;;;;11.64;35.92;93083.69;5079072;28;20130;-83
2023/12/22 06:09:49;;;;;;;1.55;0.40;;;;;;;11.34;36.78;93085.28;5097308;28;20020;-83
2023/12/22 06:12:14;;;;;;;1.17;0.50;;;;;;;11.17;37.37;93081.50;5094725;28;20027;-83
2023/12/22 06:14:40;;;;;;;1.33;0.40;;;;;;;11.05;37.44;93079.47;5084659;28;20039;-83
2023/12/22 06:17:06;;;;;;;2.20;0.60;;;;;;;11.08;36.98;93109.53;5095478;28;20114;-82
2023/12/22 06:19:31;;;;;;;2.90;0.60;;;;;;;11.30;36.33;93096.38;5095790;28;20040;-83
2023/12/22 06:22:00;;;;;;;4.32;0.50;;;;;;;11.33;35.95;93084.47;5097184;28;20032;-82
2023/12/22 06:24:26;;;;;;;6.65;0.50;;;;;;;11.31;36.49;93099.75;5095895;28;20066;-83
2023/12/22 06:26:51;;;;;;;1.98;0.40;;;;;;;11.14;37.01;93082.88;5095467;28;20028;-82
2023/12/22 06:29:17;;;;;;;3.65;0.73;;;;;;;11.03;36.59;93081.59;5096944;28;20092;-82
2023/12/22 06:31:42;;;;;;;3.67;0.70;;;;;;;11.07;36.24;93095.66;5095832;28;20061;-83
2023/12/22 06:34:08;;;;;;;1.40;0.40;;;;;;;10.93;36.86;93092.34;5095692;28;20035;-83
2023/12/22 06:36:33;;;;;;;3.22;0.40;;;;;;;11.08;35.56;93096.41;5079204;28;20039;-83
2023/12/22 06:38:58;;;;;;;1.90;0.60;;;;;;;11.13;36.01;93102.31;5095249;28;20092;-83
2023/12/22 06:41:30;;;;;;;1.05;0.50;;;;;;;10.86;36.38;93114.50;5095738;28;20032;-83
2023/12/22 06:44:01;;;;;;;1.52;0.60;;;;;;;10.90;36.26;93106.81;5096899;28;20035;-82
2023/12/22 06:46:28;;;;;;;1.92;0.60;;;;;;;11.01;36.33;93096.84;5096333;28;20064;-82
2023/12/22 06:48:55;;;;;;;5.45;0.60;;;;;;;10.83;36.41;93107.22;5078699;28;20024;-83
2023/12/22 06:51:30;;;;;;;2.00;1.00;;;;;;;10.58;37.54;93109.38;5078980;28;20426;-82
2023/12/22 06:53:56;;;;;;;6.68;0.73;;;;;;;10.58;36.42;93101.53;5079415;28;20035;-82
2023/12/22 06:56:26;;;;;;;8.15;1.00;;;;;;;10.46;36.71;93111.75;5058772;28;20064;-82
2023/12/22 06:58:53;;;;;;;2.08;0.55;;;;;;;10.67;36.66;93096.34;5074886;28;20028;-83
2023/12/22 07:01:20;;;;;;;1.40;0.55;;;;;;;10.62;36.96;93119.28;5075286;28;20028;-83
2023/12/22 07:03:46;;;;;;;1.73;0.50;;;;;;;10.80;35.74;93105.22;5058911;28;20039;-83
2023/12/22 07:06:11;;;;;;;2.40;0.45;;;;;;;10.93;36.57;93113.31;5075306;28;20036;-83
2023/12/22 07:08:37;;;;;;;2.55;0.32;;;;;;;11.29;35.06;93104.53;5074689;28;20028;-82
2023/12/22 07:11:02;;;;;;;4.68;0.40;;;;;;;11.38;34.73;93133.41;5075207;28;20469;-81
2023/12/22 07:13:28;;;;;;;1.40;0.25;;;;;;;11.48;35.08;93125.28;5076720;28;20033;-83
2023/12/22 07:15:53;;;;;;;1.27;0.50;;;;;;;11.42;35.97;93137.00;5075101;28;20028;-83
2023/12/22 07:18:18;;;;;;;1.55;0.40;;;;;;;11.28;35.89;93150.19;5074706;28;20086;-83
2023/12/22 07:20:44;;;;;;;2.25;0.45;;;;;;;11.40;34.51;93131.25;5058593;28;20025;-83
2023/12/22 07:23:11;;;;;;;2.63;0.50;;;;;;;11.50;34.69;93145.97;5075123;28;20043;-83
2023/12/22 07:25:38;;;;;;;7.57;0.68;;;;;;;11.61;34.55;93157.72;5076342;28;20029;-83
2023/12/22 07:28:04;;;;;;;0.40;0.40;;;;;;;11.63;34.32;93145.09;5058363;28;20024;-82
2023/12/22 07:30:30;;;;;;;1.52;0.50;;;;;;;11.46;35.03;93146.56;5074912;28;20047;-82
2023/12/22 07:32:55;;;;;;;5.78;0.60;;;;;;;11.68;34.92;93158.06;5074928;28;20365;-83
2023/12/22 07:35:20;;;;;;;2.72;0.50;;;;;;;11.69;35.25;93169.31;5075067;28;20024;-83
2023/12/22 07:37:46;;;;;;;2.75;0.50;;;;;;;11.68;35.23;93168.56;5074505;28;20028;-82
2023/12/22 07:40:12;;;;;;;3.45;0.47;;;;;;;11.67;34.72;93172.25;5076070;28;20101;-82
2023/12/22 07:42:37;;;;;;;5.07;0.68;;;;;;;11.76;34.52;93182.00;5058083;28;20029;-82
2023/12/22 07:45:04;;;;;;;4.63;0.52;;;;;;;11.62;34.84;93180.28;5074830;28;20063;-83
2023/12/22 07:47:30;;;;;;;0.50;0.28;;;;;;;11.70;34.22;93187.41;5057381;28;20040;-83
2023/12/22 07:49:55;;;;;;;4.60;0.95;;;;;;;11.74;34.47;93209.31;5074729;28;20029;-82
2023/12/22 07:52:21;;;;;;;6.85;0.65;;;;;;;11.66;35.79;93196.16;5074831;28;20028;-82
2023/12/22 07:54:47;;;;;;;1.55;0.45;;;;;;;11.93;34.76;93199.66;5074773;28;20465;-82
2023/12/22 07:57:12;;;;;;;2.25;0.52;;;;;;;11.94;34.94;93201.22;5058501;28;20032;-83
2023/12/22 07:59:38;;;;;;;2.38;0.43;;;;;;;11.94;35.07;93199.38;5061528;28;20032;-83
2023/12/22 08:02:03;;;;;;;0.70;0.45;;;;;;;11.94;34.70;93199.38;5061882;28;20127;-83
2023/12/22 08:04:29;;;;;;;2.47;0.40;;;;;;;11.78;35.54;93211.38;5061851;28;20034;-83
2023/12/22 08:06:54;;;;;;;2.55;0.50;;;;;;;11.86;35.19;93206.13;5077882;28;20059;-83
2023/12/22 08:09:20;;;;;;;2.10;0.60;;;;;;;11.85;35.42;93206.44;5079432;28;20021;-83
2023/12/22 08:11:46;;;;;;;3.42;0.45;;;;;;;11.96;35.83;93215.59;5078115;28;20031;-83
2023/12/22 08:14:12;;;;;;;0.82;0.38;;;;;;;11.96;34.78;93222.69;5078292;28;20025;-83
2023/12/22 08:16:37;;;;;;;2.03;0.60;;;;;;;12.23;34.32;93219.09;5061655;28;20090;-83
2023/12/22 08:19:03;;;;;;;1.58;0.43;;;;;;;12.36;33.91;93211.41;5077569;28;20025;-82
2023/12/22 08:21:28;;;;;;;0.35;0.30;;;;;;;12.38;33.51;93214.50;5078077;28;20028;-83
2023/12/22 08:23:54;;;;;;;1.00;0.40;;;;;;;12.37;34.49;93215.56;5078107;28;20418;-83
2023/12/22 08:26:19;;;;;;;2.25;0.47;;;;;;;12.36;35.41;93229.78;5079148;28;20031;-83
2023/12/22 08:28:45;;;;;;;0.77;0.40;;;;;;;12.32;33.62;93237.50;5077410;28;20031;-83
2023/12/22 08:31:12;;;;;;;0.22;0.20;;;;;;;12.52;33.87;93238.00;5077753;28;20122;-83
2023/12/22 08:33:40;;;;;;;0.75;0.47;;;;;;;12.56;33.20;93242.34;5078923;28;20319;-83
2023/12/22 08:36:06;;;;;;;3.45;0.80;;;;;;;12.44;34.43;93244.78;5078977;28;20109;-83
2023/12/22 08:38:32;;;;;;;0.98;0.40;;;;;;;12.51;34.94;93244.31;5060673;28;20094;-83
2023/12/22 08:40:57;;;;;;;1.27;0.40;;;;;;;12.61;35.77;93244.03;5077650;28;20036;-83
2023/12/22 08:43:22;;;;;;;7.60;0.40;;;;;;;12.48;35.22;93253.63;5077596;28;20039;-83
2023/12/22 08:45:48;;;;;;;3.03;0.45;;;;;;;12.46;35.99;93261.00;5078659;28;20089;-83
2023/12/22 08:48:13;;;;;;;1.83;0.50;;;;;;;12.71;34.06;93259.53;5078231;28;20031;-83
2023/12/22 08:50:39;;;;;;;1.10;0.50;;;;;;;12.69;35.69;93263.53;5078641;28;20032;-83
2023/12/22 08:53:04;;;;;;;3.28;0.50;;;;;;;12.68;36.11;93283.00;5078588;28;20319;-84
2023/12/22 08:55:29;;;;;;;2.85;0.30;;;;;;;12.68;34.30;93277.75;5077428;28;20031;-83
2023/12/22 08:57:55;;;;;;;2.22;0.40;;;;;;;12.73;36.52;93269.72;5060324;28;20117;-83
2023/12/22 09:00:20;;;;;;;2.88;0.60;;;;;;;12.71;35.30;93279.75;5060838;28;20035;-83
2023/12/22 09:02:46;;;;;;;4.63;0.47;;;;;;;12.79;35.79;93276.38;5077421;28;20350;-82
2023/12/22 09:05:11;;;;;;;1.58;0.45;;;;;;;12.83;33.89;93282.56;5060756;28;20420;-83
2023/12/22 09:07:37;;;;;;;1.00;0.52;;;;;;;12.86;35.17;93296.97;5076497;28;20039;-83
2023/12/22 09:10:03;;;;;;;4.18;0.43;;;;;;;12.85;35.53;93303.28;5076952;28;20055;-83
2023/12/22 09:12:28;;;;;;;0.57;0.30;;;;;;;13.03;34.52;93319.84;5078274;28;20029;-84
2023/12/22 09:14:54;;;;;;;4.22;0.32;;;;;;;13.17;35.03;93305.78;5060237;28;20036;-83
2023/12/22 09:17:19;;;;;;;4.80;0.50;;;;;;;13.05;33.76;93293.25;5076508;28;20338;-83
2023/12/22 09:19:45;;;;;;;1.67;0.55;;;;;;;13.13;35.35;93316.91;5077043;28;20037;-83
2023/12/22 09:22:10;;;;;;;4.07;0.63;;;;;;;13.14;35.35;93299.31;5078012;28;20448;-85
2023/12/22 09:24:36;;;;;;;1.45;0.55;;;;;;;13.11;33.22;93315.66;5060108;28;20039;-83
2023/12/22 09:27:02;;;;;;;0.20;0.20;;;;;;;13.13;33.75;93322.19;5076311;28;20036;-85
2023/12/22 09:29:35;;;;;;;2.53;0.30;;;;;;;13.24;33.43;93316.63;5060281;28;20060;-83
2023/12/22 09:32:01;;;;;;;0.88;0.38;;;;;;;13.19;34.71;93320.19;5076823;28;20028;-83
2023/12/22 09:34:27;;;;;;;3.33;0.50;;;;;;;13.27;35.77;93350.97;5060144;28;20021;-85
2023/12/22 09:36:53;;;;;;;3.72;0.47;;;;;;;13.26;33.25;93333.63;5059863;28;20035;-85
2023/12/22 09:39:19;;;;;;;2.25;0.30;;;;;;;13.25;35.57;93312.91;5076411;28;20040;-85
2023/12/22 09:41:47;;;;;;;0.20;0.20;;;;;;;13.33;34.83;93316.63;5076448;28;20029;-83
2023/12/22 09:44:19;;;;;;;1.20;0.30;;;;;;;13.26;33.77;93332.88;5076408;28;20421;-85
2023/12/22 09:46:45;;;;;;;5.10;0.45;;;;;;;13.22;35.22;93345.09;5076193;28;20036;-83
2023/12/22 09:49:11;;;;;;;0.70;0.30;;;;;;;13.24;34.52;93348.19;5076224;28;20028;-85
2023/12/22 09:51:37;;;;;;;2.67;0.68;;;;;;;13.42;35.84;93354.22;5076373;28;20050;-84
2023/12/22 09:54:02;;;;;;;1.33;0.30;;;;;;;13.54;35.07;93337.84;5076157;28;20036;-84
2023/12/22 09:56:29;;;;;;;0.55;0.30;;;;;;;13.29;35.50;93346.19;5076123;28;20032;-83
2023/12/22 09:58:56;;;;;;;1.17;0.40;;;;;;;13.34;36.57;93334.72;5075584;28;20361;-83
2023/12/22 10:01:22;;;;;;;3.38;0.47;;;;;;;13.35;36.79;93331.03;5076038;28;20039;-83
2023/12/22 10:03:48;;;;;;;2.42;0.43;;;;;;;13.46;35.06;93336.75;5076150;28;20029;-84
2023/12/22 10:06:14;;;;;;;2.92;0.60;;;;;;;13.43;34.21;93327.63;5076061;28;20055;-85
2023/12/22 10:08:41;;;;;;;1.23;0.50;;;;;;;13.49;34.14;93336.13;5059254;28;20032;-85
2023/12/22 10:11:08;;;;;;;0.70;0.20;;;;;;;13.48;35.34;93333.81;5059425;28;20338;-84
2023/12/22 10:13:36;;;;;;;0.52;0.38;;;;;;;13.51;34.08;93336.59;5075944;28;20071;-84
2023/12/22 10:16:03;;;;;;;1.70;0.30;;;;;;;13.46;34.30;93330.72;5075875;28;20481;-83
2023/12/22 10:18:29;;;;;;;0.40;0.30;;;;;;;13.30;35.82;93325.91;5076608;28;20032;-84
2023/12/22 10:20:54;;;;;;;5.50;0.50;;;;;;;13.26;35.33;93331.00;5075054;28;20032;-84
2023/12/22 10:23:20;;;;;;;0.30;0.20;;;;;;;13.31;37.01;93313.53;5075709;28;20043;-84
2023/12/22 10:25:45;;;;;;;0.47;0.45;;;;;;;13.38;35.03;93333.03;5075733;28;20032;-84
2023/12/22 10:28:11;;;;;;;3.28;0.40;;;;;;;13.37;34.66;93323.59;5075286;28;20032;-84
2023/12/22 10:30:38;;;;;;;3.92;0.40;;;;;;;13.39;35.57;93308.25;5076799;28;20033;-84
2023/12/22 10:33:07;;;;;;;1.75;0.30;;;;;;;13.26;35.39;93306.56;5059198;28;20128;-84
2023/12/22 10:35:32;;;;;;;0.63;0.40;;;;;;;13.41;34.14;93313.19;5075670;28;20036;-84
2023/12/22 10:37:59;;;;;;;1.15;0.57;;;;;;;13.65;34.67;93302.22;5058571;28;20032;-84
2023/12/22 10:40:25;;;;;;;0.88;0.50;;;;;;;13.55;34.79;93310.44;5059137;28;20095;-84
2023/12/22 10:42:51;;;;;;;1.17;0.20;;;;;;;13.48;35.47;93294.34;5059088;28;20029;-84
2023/12/22 10:45:18;;;;;;;1.50;0.40;;;;;;;13.51;35.39;93291.88;5075492;28;20419;-84
2023/12/22 10:47:43;;;;;;;1.45;0.43;;;;;;;13.60;34.15;93289.22;5075110;28;20044;-84
2023/12/22 10:50:12;;;;;;;0.98;0.22;;;;;;;13.69;34.43;93282.09;5075504;28;20032;-84
2023/12/22 10:52:39;;;;;;;4.15;0.40;;;;;;;13.65;35.41;93283.81;5076207;28;20052;-84
2023/12/22 10:55:04;;;;;;;0.88;0.40;;;;;;;13.71;33.74;93279.16;5076555;28;20039;-84
2023/12/22 10:57:37;;;;;;;0.55;0.30;;;;;;;13.77;35.23;93263.94;5058300;28;20077;-84
2023/12/22 11:00:04;;;;;;;3.03;0.33;;;;;;;14.11;33.93;93254.41;5075400;28;20063;-84
2023/12/22 11:02:30;;;;;;;1.42;0.55;;;;;;;13.93;33.44;93262.38;5075414;28;20441;-84
2023/12/22 11:05:05;;;;;;;4.47;0.40;;;;;;;14.06;33.26;93270.34;5075212;28;20046;-83
2023/12/22 11:07:32;;;;;;;2.17;0.52;;;;;;;14.21;34.35;93269.06;5074966;28;20040;-83
2023/12/22 11:10:03;;;;;;;1.45;0.52;;;;;;;14.20;34.89;93260.41;5076386;28;20025;-83
2023/12/22 11:12:29;;;;;;;1.67;0.82;;;;;;;14.19;33.85;93269.38;5075255;28;20318;-84
2023/12/22 11:14:55;;;;;;;4.80;0.70;;;;;;;14.41;33.77;93268.34;5075300;28;20083;-83
2023/12/22 11:17:21;;;;;;;0.40;0.22;;;;;;;14.29;32.88;93257.72;5074856;28;20028;-83
2023/12/22 11:19:53;;;;;;;2.85;0.65;;;;;;;14.25;32.63;93262.84;5076271;28;20119;-84
2023/12/22 11:22:19;;;;;;;0.47;0.35;;;;;;;14.30;34.45;93269.03;5076338;28;20511;-83
2023/12/22 11:24:48;;;;;;;2.08;0.43;;;;;;;14.35;33.99;93266.22;5075047;28;20118;-83
2023/12/22 11:27:17;;;;;;;2.40;0.30;;;;;;;14.50;34.41;93260.41;5074676;28;20031;-83